Aviation Digital Data Service (ADDS)

Output produced by METARs form (0211 UTC 24 November 2017)
found at http://www.aviationweather.gov/adds/metars/
 
EFJY 240150Z AUTO 16012KT 130V210 5000 OVC004 01/00 Q1002
EFJY 240120Z AUTO 16012KT 4800 BR OVC003 01/00 Q1002
EFJY 240050Z AUTO 15013KT 3800 BR OVC003 01/00 Q1002
EFJY 240020Z AUTO 15014KT 120V190 3900 BR OVC003 01/00 Q1002
EFJY 232350Z AUTO 15016KT 3500 BR OVC003 01/00 Q1002
EFJY 232320Z AUTO 16015KT 3900 BR OVC002 00/00 Q1003
EFJY 232250Z AUTO 15016KT 3700 BR OVC002 00/00 Q1003
EFJY 232220Z AUTO 15014KT 3800 BR OVC003 00/00 Q1003 REFZDZ
EFJY 232150Z AUTO 15015KT 8000 OVC004 00/00 Q1003 REFZRA REFZRA
EFJY 232120Z AUTO 15013KT 9999 OVC005 00/M01 Q1004 REFZRA REFZRA
EFJY 232050Z AUTO 15017G28KT 9999 -FZRA OVC005 00/00 Q1004 REFZRA
EFJY 232020Z AUTO 15013KT 8000 -FZRASN VCSH OVC005 00/M01 Q1004
EFJY 231950Z AUTO 14010KT 6000 -SN OVC005 M01/M02 Q1005
EFJY 231920Z AUTO 14011KT 3600 BR VCSH OVC006 M02/M02 Q1005
EFJY 231850Z AUTO 14012KT 3000 -SN OVC007 M02/M03 Q1005
EFJY 231820Z AUTO 14013KT 3300 -SN OVC008 M02/M03 Q1005
EFJY 231750Z AUTO 14017KT 6000 -SN BKN009 OVC023 M02/M03 Q1005
EFJY 231720Z AUTO 14017KT 5000 -PL OVC010 M02/M03 Q1005
EFJY 231650Z AUTO 15013KT 9999 -SG VCSH OVC010 M02/M04 Q1006
EFJY 231620Z AUTO 15014KT 9999 -SN OVC009 M02/M04 Q1006
EFJY 231550Z AUTO 14018KT 9999 -SG OVC009 M03/M04 Q1006
EFJY 231520Z AUTO 14016KT 9999 -SN OVC010 M03/M04 Q1006
EFJY 231450Z AUTO 14020KT 6000 -SN OVC011 M03/M05 Q1007
EFJY 231420Z AUTO 14017KT 5000 -SN OVC011CB M03/M05 Q1007
EFJY 231350Z 14018G28KT 2000 -SN DRSN FEW009 BKN011 BKN013 M03/M05 Q1008
EFJY 231326Z 13020KT 7000 -SN SCT009 BKN011 M03/M05 Q1008
EFJY 231320Z 13018KT 7000 -SN DRSN SCT009 BKN011 M03/M05 Q1008
EFJY 231250Z 13020KT 1500 SN DRSN BKN009 BKN012 M04/M05 Q1008
EFJY 231220Z 13015KT 0750 R12/1400D R30/1400D SN DRSN VV008 M04/M05 Q1009
EFJY 231150Z 13015KT 0800 SN DRSN VV008 M04/M05 Q1010
EFJY 231122Z 13015KT 0750 SN DRSN VV007 M04/M05 Q1010
EFJY 231050Z 13014KT 0800 SN DRSN VV008 M04/M06 Q1011
EFJY 231020Z 12015KT 1200 SN DRSN SCT007 BKN009 M04/M06 Q1011
EFJY 230950Z 12016KT 2500 -SN DRSN BKN009 M04/M06 Q1012
EFJY 230920Z 12017G27KT 3500 -SN BKN009 M04/M06 Q1012
EFJY 230850Z 12015KT 9999 -SN BKN009 M05/M06 Q1013
EFJY 230820Z 13012KT 9999 VCSH FEW008 OVC010 M05/M07 Q1013
EFJY 230750Z 12015KT 9999 OVC010 M05/M07 Q1014
EFJY 230720Z 12013KT 9999 FEW008 BKN010 M05/M07 Q1014
EFJY 230650Z 13015KT 9999 FEW008 BKN010 M06/M08 Q1014
EFJY 230620Z 12013KT 9999 FEW008 BKN010 M06/M08 Q1015
EFJY 230550Z AUTO 12012KT 9999 OVC010 M06/M08 Q1015
EFJY 230520Z AUTO 12013KT 9999 OVC011 M06/M08 Q1015
EFJY 230450Z AUTO 12013KT 9999 OVC010 M06/M08 Q1015
EFJY 230420Z AUTO 12015KT 9999 OVC010 M06/M08 Q1015
EFJY 230350Z AUTO 12015KT 9999 OVC011 M06/M08 Q1016
EFJY 230320Z AUTO 11013KT 9999 OVC010 M06/M08 Q1016
EFJY 230250Z AUTO 11013KT 9999 OVC010 M06/M08 Q1016
EFJY 230220Z AUTO 12013KT 9999 OVC011 M06/M08 Q1017
EFJY 230150Z AUTO 11011KT 9999 OVC012 M06/M08 Q1017
EFJY 230120Z AUTO 11015KT 9999 OVC012 M06/M08 Q1017
EFJY 230050Z AUTO 12013KT 9999 OVC013 M06/M08 Q1017
EFJY 230020Z AUTO 12012KT 9999 OVC013 M06/M08 Q1017
EFJY 222350Z AUTO 12011KT 9999 OVC014 M06/M08 Q1018
EFJY 222320Z AUTO 12010KT 9999 OVC013 M06/M08 Q1018
EFJY 222250Z AUTO 12013KT 9999 OVC012 M06/M08 Q1018
EFJY 222220Z AUTO 12010KT 9999 OVC011 M06/M08 Q1018
EFJY 222150Z AUTO 10010KT 9999 OVC012 M06/M08 Q1018
EFJY 222120Z AUTO 10011KT 9999 OVC013 M06/M08 Q1018
EFJY 222050Z AUTO 10009KT 9999 OVC012 M06/M08 Q1018
EFJY 222020Z AUTO 11010KT 9999 OVC012 M06/M08 Q1018
EFJY 221950Z AUTO 09010KT 9999 OVC012 M06/M08 Q1018
EFJY 221920Z AUTO 09008KT 9999 OVC012 M06/M08 Q1018
EFJY 221850Z AUTO 11010KT 9999 OVC012 M06/M08 Q1018
EFJY 221820Z AUTO 09013KT 9999 BKN012 M06/M08 Q1018
EFJY 221750Z AUTO 09010KT 9999 BKN012 M06/M08 Q1018
EFJY 221720Z AUTO 10010KT 9999 OVC012 M06/M08 Q1018
EFJY 221650Z AUTO 08009KT 9999 BKN012 M06/M08 Q1018
EFJY 221620Z AUTO 08008KT 9999 OVC012 M06/M08 Q1018
EFJY 221550Z AUTO 09010KT 9999 OVC012 M06/M08 Q1018
EFJY 221520Z AUTO 09009KT 9999 OVC012 M05/M08 Q1018
EFJY 221450Z AUTO 09009KT 9999 OVC012 M05/M08 Q1018
EFJY 221420Z AUTO 08005KT 050V120 9999 OVC012 M05/M07 Q1017